Time;durP1;ratioP1;P1;durP2;ratioP2;P2;SDS_P1;SDS_P2;PMS_P1;PMS_P2;Temp;Humidity;BMP_temperature;BMP_pressure;BME280_temperature;BME280_humidity;BME280_pressure;Samples;Min_cycle;Max_cycle;Signal;HPM_P1;HPM_P2
2022/05/11 00:00:35;;;;;;;17.83;11.87;;;11.50;88.90;;;;;;4810634;29;20180;-90
2022/05/11 00:03:01;;;;;;;13.77;11.43;;;11.50;89.00;;;;;;4810618;29;20224;-91
2022/05/11 00:05:27;;;;;;;19.27;11.37;;;11.50;89.10;;;;;;4827151;29;20176;-90
2022/05/11 00:07:52;;;;;;;19.40;13.20;;;11.50;89.00;;;;;;4827175;29;20180;-90
2022/05/11 00:10:18;;;;;;;16.07;13.07;;;11.50;88.90;;;;;;4810725;29;20189;-90
2022/05/11 00:12:45;;;;;;;18.10;13.50;;;11.50;89.10;;;;;;4810786;29;20208;-90
2022/05/11 00:15:14;;;;;;;17.47;12.87;;;11.60;89.20;;;;;;4810427;29;20222;-91
2022/05/11 00:17:39;;;;;;;16.60;11.60;;;11.60;89.30;;;;;;4810404;29;20199;-91
2022/05/11 00:20:09;;;;;;;15.80;11.87;;;11.70;89.30;;;;;;4809599;29;20188;-91
2022/05/11 00:22:35;;;;;;;14.53;11.27;;;11.70;89.10;;;;;;4826144;29;20260;-90
2022/05/11 00:25:03;;;;;;;18.47;11.40;;;11.70;89.00;;;;;;4810291;29;20229;-90
2022/05/11 00:27:29;;;;;;;16.30;11.70;;;11.70;89.00;;;;;;4810158;29;20660;-91
2022/05/11 00:29:54;;;;;;;15.33;10.43;;;11.70;88.90;;;;;;4810155;29;20240;-91
2022/05/11 00:32:21;;;;;;;20.07;12.20;;;11.50;88.90;;;;;;4810208;29;20336;-91
2022/05/11 00:34:46;;;;;;;16.20;12.90;;;11.50;89.10;;;;;;4826252;29;20180;-91
2022/05/11 00:37:12;;;;;;;15.27;13.03;;;11.50;89.30;;;;;;4809878;29;20180;-91
2022/05/11 00:39:37;;;;;;;19.97;14.47;;;11.50;89.40;;;;;;4810018;29;20180;-91
2022/05/11 00:42:04;;;;;;;21.30;14.27;;;11.60;89.40;;;;;;4809705;29;20207;-91
2022/05/11 00:44:30;;;;;;;16.97;12.73;;;11.60;89.40;;;;;;4810178;29;20671;-91
2022/05/11 00:46:59;;;;;;;20.47;14.00;;;11.70;89.50;;;;;;4810719;29;20188;-91
2022/05/11 00:49:33;;;;;;;20.10;13.63;;;11.70;89.40;;;;;;4826183;29;20184;-91
2022/05/11 00:52:14;;;;;;;24.37;15.00;;;11.60;89.40;;;;;;4809869;29;20211;-92
2022/05/11 00:54:48;;;;;;;21.70;14.53;;;11.60;89.60;;;;;;4810013;29;20187;-92
2022/05/11 00:57:25;;;;;;;21.67;13.80;;;11.60;89.90;;;;;;4810325;29;20238;-91
2022/05/11 00:59:53;;;;;;;21.47;14.93;;;11.70;90.00;;;;;;4809736;29;20192;-91
2022/05/11 01:02:20;;;;;;;20.83;14.23;;;11.70;90.00;;;;;;4809187;29;20698;-91
2022/05/11 01:04:46;;;;;;;14.10;11.97;;;11.70;90.00;;;;;;4825820;29;20184;-92
2022/05/11 01:07:14;;;;;;;12.37;10.80;;;11.70;90.00;;;;;;4810475;29;20252;-90
2022/05/11 01:09:40;;;;;;;16.07;11.37;;;11.50;89.60;;;;;;4809342;29;20220;-91
2022/05/11 01:12:11;;;;;;;15.37;11.73;;;11.50;89.70;;;;;;4809175;29;20204;-91
2022/05/11 01:14:39;;;;;;;15.97;11.90;;;11.40;89.70;;;;;;4825659;29;20169;-91
2022/05/11 01:17:05;;;;;;;14.27;12.70;;;11.30;89.70;;;;;;4809267;29;20184;-91
2022/05/11 01:19:33;;;;;;;18.00;13.37;;;11.30;89.80;;;;;;4809004;29;20611;-92
2022/05/11 01:22:21;;;;;;;18.13;14.30;;;11.30;90.00;;;;;;4809288;29;20234;-91
2022/05/11 01:24:48;;;;;;;17.53;13.37;;;11.30;90.10;;;;;;4809231;29;20234;-91
2022/05/11 01:27:35;;;;;;;15.03;12.83;;;11.40;90.20;;;;;;4809085;29;20248;-89
2022/05/11 01:30:07;;;;;;;18.67;14.33;;;11.40;90.10;;;;;;4809110;29;20180;-90
2022/05/11 01:32:34;;;;;;;18.87;13.63;;;11.50;90.20;;;;;;4808548;29;20632;-90
2022/05/11 01:35:33;;;;;;;19.87;14.50;;;11.50;90.10;;;;;;4808939;29;20180;-91
2022/05/11 01:38:17;;;;;;;16.47;13.97;;;11.40;90.20;;;;;;4825661;29;20188;-91
2022/05/11 01:40:43;;;;;;;19.33;15.30;;;11.40;90.40;;;;;;4808667;29;20195;-90
2022/05/11 01:43:14;;;;;;;25.77;15.87;;;11.40;90.40;;;;;;4808535;29;20224;-91
2022/05/11 01:45:39;;;;;;;20.23;16.10;;;11.50;90.50;;;;;;4808866;29;20249;-91
2022/05/11 01:48:05;;;;;;;32.17;18.40;;;11.40;90.60;;;;;;4808645;29;20196;-92
2022/05/11 01:50:31;;;;;;;29.67;18.20;;;11.40;90.70;;;;;;4808930;29;20287;-91
2022/05/11 01:52:56;;;;;;;24.03;18.57;;;11.50;90.90;;;;;;4808640;29;20294;-90
2022/05/11 01:55:22;;;;;;;23.93;17.77;;;11.50;90.90;;;;;;4808694;29;20212;-91
2022/05/11 01:57:47;;;;;;;28.03;18.87;;;11.50;91.00;;;;;;4825080;29;20188;-91
2022/05/11 02:00:13;;;;;;;23.73;17.13;;;11.50;91.00;;;;;;4824851;29;20185;-91
2022/05/11 02:02:39;;;;;;;27.47;18.60;;;11.60;91.10;;;;;;4808289;29;20228;-90
2022/05/11 02:07:50;;;;;;;29.90;18.23;;;11.70;91.20;;;;;;4824818;29;20301;-91
2022/05/11 02:10:20;;;;;;;26.00;17.80;;;11.80;91.20;;;;;;4826308;29;20217;-90
2022/05/11 02:12:46;;;;;;;28.13;18.23;;;11.80;91.20;;;;;;4808523;29;20208;-91
2022/05/11 02:15:14;;;;;;;21.37;17.57;;;11.80;91.30;;;;;;4808505;29;20191;-90
2022/05/11 02:17:43;;;;;;;20.80;17.37;;;11.80;91.20;;;;;;4808288;29;20188;-91
2022/05/11 02:20:11;;;;;;;26.00;17.67;;;11.80;91.20;;;;;;4809118;29;20248;-91
2022/05/11 02:22:37;;;;;;;26.93;18.47;;;11.80;91.10;;;;;;4808278;29;20204;-91
2022/05/11 02:25:04;;;;;;;21.67;18.17;;;11.80;91.10;;;;;;4808199;29;20180;-90
2022/05/11 02:27:32;;;;;;;22.83;17.73;;;11.80;91.20;;;;;;4808082;29;20180;-91
2022/05/11 02:29:57;;;;;;;21.47;18.23;;;11.90;91.30;;;;;;4824607;29;20237;-90
2022/05/11 02:32:24;;;;;;;25.70;18.50;;;12.00;91.30;;;;;;4808150;29;20204;-90
2022/05/11 02:37:33;;;;;;;25.00;17.03;;;12.00;91.20;;;;;;4824557;29;20191;-91
2022/05/11 02:39:59;;;;;;;20.50;17.07;;;12.00;91.20;;;;;;4808068;29;20569;-91
2022/05/11 02:42:25;;;;;;;19.03;14.60;;;12.00;91.10;;;;;;4807780;29;20207;-91
2022/05/11 02:44:50;;;;;;;16.40;14.67;;;11.90;91.00;;;;;;4810112;29;20192;-90
2022/05/11 02:47:16;;;;;;;15.73;13.53;;;11.90;91.00;;;;;;4827961;29;20180;-91
2022/05/11 02:49:41;;;;;;;15.33;13.73;;;11.90;90.90;;;;;;4828298;29;20634;-89
2022/05/11 02:52:07;;;;;;;19.67;13.63;;;12.00;90.90;;;;;;4812005;29;20208;-91
2022/05/11 02:54:33;;;;;;;19.23;13.87;;;11.90;90.80;;;;;;4811471;29;20540;-90
2022/05/11 02:56:58;;;;;;;14.43;12.83;;;11.90;90.80;;;;;;4812173;29;20188;-91
2022/05/11 02:59:24;;;;;;;17.97;13.63;;;11.90;90.70;;;;;;4827631;29;20255;-91
2022/05/11 03:01:51;;;;;;;17.20;14.67;;;11.90;90.60;;;;;;4811285;29;20323;-90
2022/05/11 03:04:21;;;;;;;20.13;14.90;;;11.90;90.50;;;;;;4811343;29;20349;-91
2022/05/11 03:06:49;;;;;;;21.60;16.57;;;11.90;90.60;;;;;;4811251;29;20568;-90
2022/05/11 03:09:15;;;;;;;17.97;13.97;;;11.90;90.60;;;;;;4811268;29;20192;-91
2022/05/11 03:11:42;;;;;;;16.20;14.53;;;11.90;90.50;;;;;;4811204;29;20275;-91
2022/05/11 03:14:09;;;;;;;18.50;14.13;;;11.80;90.50;;;;;;4811355;29;20215;-90
2022/05/11 03:16:35;;;;;;;16.73;14.10;;;11.80;90.50;;;;;;4811098;29;20195;-90
2022/05/11 03:19:02;;;;;;;16.03;13.77;;;11.80;90.40;;;;;;4811133;29;20184;-91
2022/05/11 03:21:27;;;;;;;16.87;14.43;;;11.80;90.40;;;;;;4811109;29;20244;-91
2022/05/11 03:23:54;;;;;;;14.87;13.27;;;11.80;90.40;;;;;;4827161;29;20675;-91
2022/05/11 03:26:20;;;;;;;16.27;14.57;;;11.70;90.40;;;;;;4810967;29;20276;-91
2022/05/11 03:28:45;;;;;;;18.00;14.33;;;11.60;90.30;;;;;;4811180;29;20224;-91
2022/05/11 03:31:11;;;;;;;18.73;14.30;;;11.60;90.50;;;;;;4811295;29;20188;-91
2022/05/11 03:36:21;;;;;;;21.90;14.13;;;11.60;90.60;;;;;;4827309;29;20545;-90
2022/05/11 03:38:46;;;;;;;18.87;15.07;;;11.60;90.80;;;;;;4811174;29;20192;-91
2022/05/11 03:41:12;;;;;;;19.37;15.60;;;11.60;91.00;;;;;;4810942;29;20211;-90
2022/05/11 03:43:37;;;;;;;23.07;15.57;;;11.60;91.10;;;;;;4810977;29;20212;-90
2022/05/11 03:46:03;;;;;;;19.63;14.40;;;11.60;91.20;;;;;;4810812;29;20184;-90
2022/05/11 03:48:29;;;;;;;18.07;15.87;;;11.60;91.20;;;;;;4810881;29;20620;-91
2022/05/11 03:50:55;;;;;;;17.30;15.27;;;11.60;91.30;;;;;;4810572;29;20184;-90
2022/05/11 03:53:21;;;;;;;27.53;16.37;;;11.60;91.40;;;;;;4810403;29;20214;-90
2022/05/11 03:55:47;;;;;;;19.47;16.43;;;11.70;91.40;;;;;;4810223;29;20184;-91
2022/05/11 03:58:14;;;;;;;21.97;17.13;;;11.60;91.40;;;;;;4826739;29;20211;-90
2022/05/11 04:00:40;;;;;;;27.37;16.63;;;11.60;91.50;;;;;;4810379;29;20219;-90
2022/05/11 04:03:06;;;;;;;20.17;16.63;;;11.60;91.60;;;;;;4809987;29;20738;-90
2022/05/11 04:05:32;;;;;;;20.50;15.87;;;11.60;91.70;;;;;;4826772;29;20177;-91
2022/05/11 04:07:58;;;;;;;23.67;16.60;;;11.60;91.60;;;;;;4826414;29;20183;-90
2022/05/11 04:10:24;;;;;;;18.27;15.90;;;11.60;91.70;;;;;;4826525;29;20647;-90
2022/05/11 04:12:49;;;;;;;23.13;15.10;;;11.60;91.80;;;;;;4810050;29;20584;-90
2022/05/11 04:15:16;;;;;;;22.70;16.60;;;11.60;91.80;;;;;;4810097;29;20210;-91
2022/05/11 04:17:42;;;;;;;18.30;15.80;;;11.50;91.90;;;;;;4810085;29;20184;-91
2022/05/11 04:20:11;;;;;;;18.83;16.17;;;11.60;91.90;;;;;;4809992;29;20188;-90
2022/05/11 04:22:38;;;;;;;19.53;17.10;;;11.50;92.00;;;;;;4809896;29;20275;-90
2022/05/11 04:25:04;;;;;;;22.80;18.30;;;11.60;92.10;;;;;;4826137;29;20172;-90
2022/05/11 04:27:29;;;;;;;25.57;18.87;;;11.60;92.20;;;;;;4826113;29;20187;-90
2022/05/11 04:29:55;;;;;;;23.90;18.07;;;11.70;92.30;;;;;;4826103;29;20205;-91
2022/05/11 04:32:21;;;;;;;21.53;18.83;;;11.70;92.30;;;;;;4826632;29;20203;-90
2022/05/11 04:34:46;;;;;;;19.47;17.47;;;11.80;92.40;;;;;;4826200;29;20236;-91
2022/05/11 04:37:12;;;;;;;18.70;16.80;;;11.80;92.30;;;;;;4826126;29;20600;-90
2022/05/11 04:39:39;;;;;;;22.93;17.43;;;11.80;92.30;;;;;;4809922;29;20187;-91
2022/05/11 04:42:06;;;;;;;18.60;16.70;;;11.80;92.20;;;;;;4809592;29;20280;-91
2022/05/11 04:44:32;;;;;;;22.00;16.90;;;11.80;92.10;;;;;;4809727;29;20211;-90
2022/05/11 04:46:57;;;;;;;20.40;16.47;;;11.90;92.00;;;;;;4809725;29;20176;-90
2022/05/11 04:49:25;;;;;;;20.10;16.30;;;11.90;91.90;;;;;;4809754;29;20200;-90
2022/05/11 04:52:01;;;;;;;26.13;15.90;;;12.00;92.00;;;;;;4809499;29;20739;-91
2022/05/11 04:54:27;;;;;;;20.13;17.43;;;12.10;91.90;;;;;;4809547;29;20179;-91
2022/05/11 04:56:53;;;;;;;18.97;16.60;;;12.00;91.80;;;;;;4809927;29;20237;-91
2022/05/11 04:59:18;;;;;;;21.93;16.80;;;12.00;91.70;;;;;;4809678;29;20211;-91
2022/05/11 05:01:47;;;;;;;20.67;16.40;;;12.00;91.70;;;;;;4809501;29;20683;-90
2022/05/11 05:04:13;;;;;;;24.70;17.70;;;12.10;91.80;;;;;;4809555;29;20286;-90
2022/05/11 05:06:38;;;;;;;20.57;16.03;;;12.20;91.80;;;;;;4824971;29;20184;-90
2022/05/11 05:09:05;;;;;;;21.13;16.80;;;12.20;91.80;;;;;;4825777;29;20643;-90
2022/05/11 05:11:32;;;;;;;18.97;16.83;;;12.20;91.70;;;;;;4809374;29;20184;-90
2022/05/11 05:13:58;;;;;;;19.77;16.43;;;12.20;91.70;;;;;;4809269;29;20219;-91
2022/05/11 05:16:23;;;;;;;19.93;17.30;;;12.30;91.70;;;;;;4809262;29;20188;-90
2022/05/11 05:18:49;;;;;;;20.90;16.37;;;12.30;91.60;;;;;;4809257;29;20188;-91
2022/05/11 05:21:15;;;;;;;21.00;17.30;;;12.30;91.70;;;;;;4809295;29;20240;-90
2022/05/11 05:23:40;;;;;;;18.20;16.30;;;12.30;91.70;;;;;;4808823;29;20212;-90
2022/05/11 05:26:06;;;;;;;21.17;16.50;;;12.40;91.70;;;;;;4808846;29;20188;-90
2022/05/11 05:31:21;;;;;;;19.63;15.93;;;12.50;91.60;;;;;;4825538;29;20221;-90
2022/05/11 05:33:47;;;;;;;18.37;16.47;;;12.50;91.60;;;;;;4808639;29;20264;-90
2022/05/11 05:36:12;;;;;;;18.27;16.07;;;12.50;91.50;;;;;;4808809;29;20638;-90
2022/05/11 05:38:38;;;;;;;19.83;16.23;;;12.50;91.50;;;;;;4808747;29;20619;-91
2022/05/11 05:41:08;;;;;;;22.03;16.73;;;12.50;91.60;;;;;;4808808;29;20721;-90
2022/05/11 05:43:37;;;;;;;21.07;16.40;;;12.60;91.60;;;;;;4808584;29;20243;-90
2022/05/11 05:46:04;;;;;;;22.73;16.53;;;12.60;91.60;;;;;;4808995;29;20195;-91
2022/05/11 05:48:29;;;;;;;21.80;16.33;;;12.60;91.60;;;;;;4808810;29;20245;-91
2022/05/11 05:51:07;;;;;;;20.60;15.97;;;12.60;91.60;;;;;;4808689;29;20192;-90
2022/05/11 05:53:33;;;;;;;21.90;16.60;;;12.70;91.40;;;;;;4811507;29;20227;-89
2022/05/11 05:55:59;;;;;;;22.97;16.63;;;12.80;91.30;;;;;;4824968;29;20188;-90
2022/05/11 05:58:25;;;;;;;24.30;16.07;;;12.80;91.30;;;;;;4808617;29;20199;-90
2022/05/11 06:00:50;;;;;;;22.80;16.73;;;12.80;91.20;;;;;;4808503;29;20661;-90
2022/05/11 06:03:21;;;;;;;20.27;16.47;;;12.80;91.20;;;;;;4808301;29;20223;-90
2022/05/11 06:05:47;;;;;;;18.50;16.10;;;12.90;91.10;;;;;;4808410;29;20670;-90
2022/05/11 06:08:15;;;;;;;21.80;15.80;;;12.90;91.00;;;;;;4808548;29;20180;-91
2022/05/11 06:10:41;;;;;;;18.30;14.77;;;13.00;90.80;;;;;;4808520;29;20215;-90
2022/05/11 06:13:07;;;;;;;24.30;15.97;;;13.00;90.70;;;;;;4808413;29;20243;-91
2022/05/11 06:15:35;;;;;;;22.60;16.37;;;13.10;90.60;;;;;;4808261;29;20224;-90
2022/05/11 06:18:02;;;;;;;21.13;16.10;;;13.10;90.50;;;;;;4808339;29;20674;-90
2022/05/11 06:20:27;;;;;;;17.97;15.73;;;13.10;90.30;;;;;;4825184;29;20184;-90
2022/05/11 06:22:53;;;;;;;17.97;15.00;;;13.20;90.20;;;;;;4808284;29;20247;-91
2022/05/11 06:25:20;;;;;;;17.03;15.27;;;13.20;90.20;;;;;;4825413;29;20207;-91
2022/05/11 06:27:46;;;;;;;19.70;15.03;;;13.30;90.10;;;;;;4825187;29;20328;-91
2022/05/11 06:30:12;;;;;;;19.07;14.57;;;13.30;90.00;;;;;;4808257;29;20680;-91
2022/05/11 06:32:38;;;;;;;18.20;14.20;;;13.30;89.70;;;;;;4808680;29;20200;-91
2022/05/11 06:35:04;;;;;;;19.90;15.17;;;13.40;89.50;;;;;;4808278;29;20533;-90
2022/05/11 06:37:30;;;;;;;22.03;15.53;;;13.40;89.60;;;;;;4808190;29;20194;-91
2022/05/11 06:39:56;;;;;;;24.23;16.00;;;13.40;89.70;;;;;;4808222;29;20243;-90
2022/05/11 06:42:22;;;;;;;16.83;14.53;;;13.50;89.90;;;;;;4808061;29;20200;-91
2022/05/11 06:44:49;;;;;;;20.43;16.93;;;13.50;89.70;;;;;;4824673;29;20200;-91
2022/05/11 06:47:15;;;;;;;21.03;16.13;;;13.70;89.90;;;;;;4809098;29;20180;-90
2022/05/11 06:49:41;;;;;;;22.33;17.43;;;13.70;89.80;;;;;;4809588;29;20215;-91
2022/05/11 06:52:06;;;;;;;19.90;16.83;;;13.80;89.90;;;;;;4808009;29;20231;-91
2022/05/11 07:00:00;;;;;;;22.43;16.20;;;13.80;89.40;;;;;;4824731;29;20233;-91
2022/05/11 07:02:26;;;;;;;22.97;15.80;;;13.90;89.30;;;;;;4807720;29;20223;-92
2022/05/11 07:04:51;;;;;;;17.77;14.57;;;13.90;89.20;;;;;;4807789;29;20265;-92
2022/05/11 07:07:18;;;;;;;18.00;13.63;;;14.00;88.60;;;;;;4807743;29;20647;-91
2022/05/11 07:09:44;;;;;;;16.50;13.50;;;14.10;88.20;;;;;;4824383;29;20229;-91
2022/05/11 07:12:25;;;;;;;15.40;12.63;;;14.20;88.20;;;;;;4807773;29;20204;-91
2022/05/11 07:14:53;;;;;;;16.70;12.63;;;14.20;87.80;;;;;;4824372;29;20252;-91
2022/05/11 07:17:38;;;;;;;16.23;13.33;;;14.20;88.10;;;;;;4807687;29;20695;-91
2022/05/11 07:20:20;;;;;;;19.47;13.37;;;14.30;87.80;;;;;;4808558;29;20183;-91
2022/05/11 07:22:46;;;;;;;16.17;13.40;;;14.30;88.40;;;;;;4823905;29;20210;-91
2022/05/11 07:25:14;;;;;;;16.67;12.87;;;14.40;88.00;;;;;;4824378;29;20176;-91
2022/05/11 07:27:40;;;;;;;20.67;12.27;;;14.60;88.00;;;;;;4807743;29;20644;-91
2022/05/11 07:30:09;;;;;;;14.33;10.77;;;14.70;87.50;;;;;;4808507;29;20180;-91
2022/05/11 07:32:34;;;;;;;15.87;10.63;;;14.70;86.50;;;;;;4811004;29;20577;-91
2022/05/11 07:35:00;;;;;;;17.17;12.07;;;14.80;86.20;;;;;;4810928;29;20195;-91
2022/05/11 07:37:26;;;;;;;13.40;10.83;;;14.80;85.50;;;;;;4810878;29;20184;-91
2022/05/11 07:39:52;;;;;;;12.00;10.50;;;14.80;85.90;;;;;;4810774;29;20199;-92
2022/05/11 07:42:18;;;;;;;11.00;9.23;;;14.80;85.20;;;;;;4810646;29;20200;-91
2022/05/11 07:44:43;;;;;;;12.43;10.43;;;14.80;85.00;;;;;;4810560;29;20208;-91
2022/05/11 07:47:10;;;;;;;17.27;11.63;;;14.80;85.10;;;;;;4810618;29;20184;-91
2022/05/11 07:49:37;;;;;;;13.23;11.03;;;14.80;85.00;;;;;;4810581;29;20184;-92
2022/05/11 07:52:04;;;;;;;20.23;12.70;;;14.90;86.20;;;;;;4810475;29;20675;-92
2022/05/11 07:54:30;;;;;;;16.77;11.30;;;14.80;85.70;;;;;;4811074;29;20279;-92
2022/05/11 07:59:56;;;;;;;16.50;11.27;;;14.90;85.00;;;;;;4827132;29;20642;-90
2022/05/11 08:02:26;;;;;;;13.93;10.77;;;14.80;84.50;;;;;;4810467;29;20247;-91
2022/05/11 08:04:53;;;;;;;14.83;10.87;;;14.90;84.50;;;;;;4810740;29;20672;-91
2022/05/11 08:07:19;;;;;;;11.90;9.53;;;15.00;84.00;;;;;;4810420;29;20184;-91
2022/05/11 08:09:45;;;;;;;12.47;10.23;;;15.00;83.60;;;;;;4810594;29;20210;-91
2022/05/11 08:12:11;;;;;;;16.77;9.83;;;15.10;84.00;;;;;;4810234;29;20236;-91
2022/05/11 08:14:36;;;;;;;13.40;10.00;;;15.20;83.40;;;;;;4810263;29;20561;-91
2022/05/11 08:17:02;;;;;;;15.73;10.93;;;15.30;84.20;;;;;;4810178;29;20640;-92
2022/05/11 08:19:28;;;;;;;14.33;10.63;;;15.30;84.20;;;;;;4810625;29;20192;-91
2022/05/11 08:21:54;;;;;;;11.83;10.03;;;15.30;83.40;;;;;;4810267;29;20215;-91
2022/05/11 08:24:21;;;;;;;16.53;10.73;;;15.30;84.10;;;;;;4810109;29;20352;-91
2022/05/11 08:26:47;;;;;;;13.73;10.33;;;15.30;83.70;;;;;;4811489;29;20184;-91
2022/05/11 08:33:19;;;;;;;18.10;12.13;;;15.30;83.80;;;;;;4809914;29;20695;-90
2022/05/11 08:34:48;;;;;;;17.30;12.10;;;15.70;83.50;;;;;;4826760;29;20244;-91
2022/05/11 08:37:14;;;;;;;16.67;11.80;;;15.80;83.60;;;;;;4810601;29;20184;-91
2022/05/11 08:39:40;;;;;;;12.77;10.07;;;15.80;83.00;;;;;;4811045;29;20180;-91
2022/05/11 08:42:06;;;;;;;18.00;11.83;;;15.70;82.00;;;;;;4809270;29;20709;-91
2022/05/11 08:44:34;;;;;;;18.00;11.40;;;15.80;82.20;;;;;;4811398;29;20239;-91
2022/05/11 08:47:18;;;;;;;21.08;12.55;;;16.10;83.20;;;;;;4810670;29;20180;-93
2022/05/11 08:49:54;;;;;;;17.25;10.20;;;16.20;81.20;;;;;;4809523;29;20652;-92
2022/05/11 08:52:50;;;;;;;18.47;11.90;;;16.20;82.20;;;;;;4809611;29;20243;-90
2022/05/11 08:55:37;;;;;;;20.37;11.40;;;16.20;80.60;;;;;;4825909;29;20179;-91
2022/05/11 08:58:37;;;;;;;21.38;12.98;;;16.40;82.10;;;;;;4809508;29;20176;-91
2022/05/11 09:01:03;;;;;;;19.35;10.35;;;16.60;80.90;;;;;;4809412;29;20186;-91
2022/05/11 09:03:35;;;;;;;16.85;11.02;;;16.80;80.10;;;;;;4809448;29;20296;-92
2022/05/11 09:06:16;;;;;;;21.67;11.85;;;16.90;79.50;;;;;;4809300;29;20188;-90
2022/05/11 09:08:42;;;;;;;17.20;10.25;;;17.00;81.00;;;;;;4810387;29;20551;-90
2022/05/11 09:11:14;;;;;;;17.65;11.77;;;16.90;78.80;;;;;;4811180;29;20181;-88
2022/05/11 09:13:42;;;;;;;15.13;10.80;;;17.00;80.00;;;;;;4810063;29;20812;-89
2022/05/11 09:16:35;;;;;;;17.65;10.70;;;17.00;78.60;;;;;;4809012;29;20236;-91
2022/05/11 09:19:18;;;;;;;19.80;10.38;;;17.20;79.60;;;;;;4809245;29;20187;-89
2022/05/11 09:21:50;;;;;;;13.05;10.52;;;17.40;78.40;;;;;;4810958;29;20235;-90
2022/05/11 09:24:21;;;;;;;14.93;9.95;;;17.10;77.60;;;;;;4825479;29;20206;-91
2022/05/11 09:26:59;;;;;;;16.25;10.35;;;17.10;78.00;;;;;;4808939;29;20214;-91
2022/05/11 09:29:38;;;;;;;16.08;11.23;;;17.60;79.40;;;;;;4808940;29;20183;-92
2022/05/11 09:32:26;;;;;;;13.27;9.98;;;18.00;78.40;;;;;;4808798;29;20696;-91
2022/05/11 09:34:52;;;;;;;13.90;9.77;;;18.00;75.10;;;;;;4808696;29;20188;-90
2022/05/11 09:37:34;;;;;;;16.10;10.18;;;18.10;74.70;;;;;;4825832;29;20313;-92
2022/05/11 09:40:08;;;;;;;13.90;8.43;;;18.50;75.30;;;;;;4809288;29;20195;-90
2022/05/11 09:42:34;;;;;;;13.15;8.77;;;18.00;71.90;;;;;;4809582;29;20203;-92
2022/05/11 09:45:00;;;;;;;13.68;9.02;;;18.00;72.20;;;;;;4808830;29;20215;-90
2022/05/11 09:47:31;;;;;;;13.13;8.52;;;18.30;73.10;;;;;;4810533;29;20207;-92
2022/05/11 09:50:21;;;;;;;15.25;8.73;;;18.30;71.60;;;;;;4811299;29;20176;-92
2022/05/11 09:52:48;;;;;;;12.93;8.43;;;18.30;71.80;;;;;;4810255;29;20207;-92
2022/05/11 09:55:34;;;;;;;10.80;7.90;;;18.60;72.20;;;;;;4812813;29;20184;-91
2022/05/11 09:58:06;;;;;;;10.75;7.40;;;18.80;73.00;;;;;;4811153;29;20191;-87
2022/05/11 10:00:36;;;;;;;13.18;7.72;;;18.70;69.30;;;;;;4808525;29;20176;-87
2022/05/11 10:03:06;;;;;;;14.73;7.25;;;18.80;69.90;;;;;;4808354;29;20774;-86
2022/05/11 10:05:41;;;;;;;12.88;8.02;;;18.80;69.00;;;;;;4825064;29;20165;-87
2022/05/11 10:08:32;;;;;;;14.23;8.45;;;18.70;69.90;;;;;;4825097;29;20620;-87
2022/05/11 10:11:16;;;;;;;20.23;9.40;;;18.90;70.60;;;;;;4808509;29;20605;-87
2022/05/11 10:13:55;;;;;;;10.10;7.40;;;18.80;69.50;;;;;;4825003;29;20648;-87
2022/05/11 10:22:22;;;;;;;9.60;6.40;;;19.00;66.70;;;;;;4825214;29;20332;-87
2022/05/11 10:25:19;;;;;;;13.38;7.10;;;19.20;67.00;;;;;;4808110;29;20208;-87
2022/05/11 10:28:09;;;;;;;14.73;6.70;;;19.30;67.60;;;;;;4808162;29;20179;-86
2022/05/11 10:30:58;;;;;;;10.60;6.43;;;19.70;67.30;;;;;;4824583;29;20172;-87
2022/05/11 10:33:47;;;;;;;13.63;5.78;;;19.50;64.90;;;;;;4824774;29;20227;-86
2022/05/11 10:36:21;;;;;;;8.18;5.82;;;19.40;63.00;;;;;;4808119;29;20176;-86
2022/05/11 10:39:33;;;;;;;8.07;5.75;;;19.70;64.40;;;;;;4824724;29;20168;-85
2022/05/11 10:42:25;;;;;;;8.75;5.93;;;19.40;62.80;;;;;;4793822;29;20220;-87
2022/05/11 10:45:17;;;;;;;8.82;5.65;;;19.60;65.10;;;;;;4807944;29;20701;-87
2022/05/11 10:48:05;;;;;;;8.00;5.35;;;19.30;63.90;;;;;;4808117;29;20267;-89
2022/05/11 10:51:01;;;;;;;10.00;5.35;;;19.40;65.00;;;;;;4824262;29;20693;-87
2022/05/11 10:53:51;;;;;;;7.32;4.45;;;19.40;64.50;;;;;;4824251;29;20204;-86
2022/05/11 10:56:39;;;;;;;10.55;5.38;;;19.30;61.60;;;;;;4824267;29;20628;-87
2022/05/11 10:59:42;;;;;;;11.10;5.30;;;19.60;63.50;;;;;;4808085;29;20707;-89
2022/05/11 11:02:38;;;;;;;11.43;5.03;;;19.70;63.90;;;;;;4824085;29;20296;-85
2022/05/11 11:05:11;;;;;;;8.90;4.43;;;19.80;62.70;;;;;;4825414;29;20257;-86
2022/05/11 11:08:03;;;;;;;10.27;4.60;;;20.00;62.00;;;;;;4827545;29;20507;-85
2022/05/11 11:11:02;;;;;;;9.30;4.60;;;19.60;61.50;;;;;;4827535;29;20164;-86
2022/05/11 11:14:00;;;;;;;7.95;5.45;;;19.30;63.90;;;;;;4811027;29;20202;-85
2022/05/11 11:16:32;;;;;;;6.47;4.50;;;19.90;61.90;;;;;;4827355;29;20165;-85
2022/05/11 11:18:58;;;;;;;6.35;4.65;;;20.30;62.90;;;;;;4811509;29;20168;-85
2022/05/11 11:21:24;;;;;;;9.98;4.60;;;20.00;61.80;;;;;;4827148;29;20204;-85
2022/05/11 11:24:17;;;;;;;7.03;4.70;;;20.40;62.50;;;;;;4827112;29;20215;-85
2022/05/11 11:26:48;;;;;;;9.48;4.55;;;20.80;62.00;;;;;;4827486;29;20160;-85
2022/05/11 11:29:14;;;;;;;12.70;4.90;;;20.50;59.80;;;;;;4827113;29;20172;-85
2022/05/11 11:32:00;;;;;;;8.75;5.00;;;20.20;60.10;;;;;;4810663;29;20569;-85
2022/05/11 11:34:39;;;;;;;8.00;5.05;;;19.70;61.60;;;;;;4826934;29;20171;-85
2022/05/11 11:37:24;;;;;;;8.88;5.35;;;19.70;61.70;;;;;;4810989;29;20180;-85
2022/05/11 11:39:57;;;;;;;10.50;4.97;;;19.70;61.60;;;;;;4827134;29;20248;-85
2022/05/11 11:42:31;;;;;;;10.10;4.80;;;19.70;61.70;;;;;;4827082;29;20211;-84
2022/05/11 11:44:56;;;;;;;9.60;4.63;;;19.60;61.60;;;;;;4826868;29;20208;-86
2022/05/11 11:47:26;;;;;;;8.50;4.90;;;19.60;62.00;;;;;;4827218;29;20183;-85
2022/05/11 11:49:54;;;;;;;12.25;4.95;;;19.80;61.20;;;;;;4829031;29;20225;-86
2022/05/11 11:52:32;;;;;;;14.70;5.75;;;20.40;59.30;;;;;;4830832;29;20624;-87
2022/05/11 11:54:58;;;;;;;9.13;5.15;;;20.70;60.60;;;;;;4830882;29;20540;-87
2022/05/11 11:57:23;;;;;;;5.75;4.18;;;20.80;57.40;;;;;;4814590;29;20187;-87
2022/05/11 11:59:52;;;;;;;13.70;4.72;;;20.90;57.20;;;;;;4828990;29;20184;-85
2022/05/11 12:02:32;;;;;;;5.65;3.97;;;21.30;55.90;;;;;;4828727;29;20216;-86
2022/05/11 12:05:21;;;;;;;8.45;4.55;;;20.90;55.90;;;;;;4830050;29;20221;-86
2022/05/11 12:16:56;;;;;;;8.48;3.65;;;21.00;58.40;;;;;;4829138;29;20704;-85
2022/05/11 12:19:24;;;;;;;6.95;4.20;;;21.30;55.10;;;;;;4827865;29;20169;-88
2022/05/11 12:21:58;;;;;;;7.72;4.47;;;21.30;55.90;;;;;;4827366;29;20215;-85
2022/05/11 12:24:33;;;;;;;6.40;3.63;;;21.40;55.70;;;;;;4827822;29;20634;-86
2022/05/11 12:27:02;;;;;;;9.88;3.58;;;21.20;54.10;;;;;;4811613;29;20172;-86
2022/05/11 12:32:29;;;;;;;10.70;4.13;;;20.90;55.80;;;;;;4827520;29;20202;-86
2022/05/11 12:34:56;;;;;;;8.95;3.30;;;20.60;56.50;;;;;;4827965;29;20173;-86
2022/05/11 12:37:34;;;;;;;10.55;3.40;;;21.20;57.30;;;;;;4827788;29;20270;-86
2022/05/11 12:40:13;;;;;;;9.00;3.20;;;21.60;53.40;;;;;;4810544;29;20188;-86
2022/05/11 12:42:44;;;;;;;9.60;3.85;;;21.70;54.80;;;;;;4826924;29;20204;-87
2022/05/11 12:45:14;;;;;;;8.48;3.65;;;21.80;52.90;;;;;;4810652;29;20207;-85
2022/05/11 12:47:49;;;;;;;8.48;3.38;;;21.50;51.50;;;;;;4827559;29;20192;-86
2022/05/11 12:50:24;;;;;;;10.80;2.92;;;21.90;51.50;;;;;;4810248;29;20172;-85
2022/05/11 12:53:03;;;;;;;7.30;3.40;;;21.50;52.50;;;;;;4826151;29;20204;-84
2022/05/11 12:55:33;;;;;;;6.72;2.60;;;21.80;53.30;;;;;;4826237;29;20172;-85
2022/05/11 12:57:59;;;;;;;5.32;2.42;;;22.50;51.80;;;;;;4826122;29;20176;-84
2022/05/11 13:00:25;;;;;;;6.90;3.17;;;22.20;50.40;;;;;;4826441;29;20172;-84
2022/05/11 13:02:51;;;;;;;5.88;2.80;;;21.60;52.10;;;;;;4825967;29;20228;-84
2022/05/11 13:05:19;;;;;;;12.38;3.03;;;21.70;51.10;;;;;;4826524;29;20216;-84
2022/05/11 13:08:04;;;;;;;6.65;2.80;;;21.70;52.00;;;;;;4826082;29;20248;-84
2022/05/11 13:10:37;;;;;;;13.30;2.83;;;21.80;51.30;;;;;;4826598;29;20675;-84
2022/05/11 13:14:39;;;;;;;;;;;;;;;;;;;;;
2022/05/11 13:17:24;;;;;;;10.98;2.88;;;22.90;49.50;;;;;;4733910;30;20203;-84
2022/05/11 13:20:55;;;;;;;13.73;3.05;;;22.70;48.30;;;;;;4797444;29;20198;-84
2022/05/11 13:31:16;;;;;;;11.77;2.58;;;23.10;50.20;;;;;;4806118;29;20205;-84
2022/05/11 13:34:05;;;;;;;7.97;2.40;;;22.20;51.20;;;;;;4756081;29;20212;-84
2022/05/11 13:37:01;;;;;;;8.32;2.28;;;22.00;48.00;;;;;;4809387;29;20549;-84
2022/05/11 13:40:07;;;;;;;12.35;2.33;;;22.10;49.00;;;;;;4825749;29;20180;-83
2022/05/11 13:43:19;;;;;;;8.32;2.70;;;22.20;49.20;;;;;;4825079;29;20219;-84